This is the latest recevied weather packets stored in our database for station/object AE5TC. If no packets are shown the sender has not sent any weather packets the latest 10 day(s).
| Time | Temp. | Humidity | Pressure | Rain* | Wind** | Luminosity | Snow |
|---|---|---|---|---|---|---|---|
| 1778098304 | 28.89° C | 77% | 1015.2 hPa | 0 mm | - | 625 W/m² | - |
| 1778098001 | 28.89° C | 75% | 1015.1 hPa | 0 mm | - | 224 W/m² | - |
| 1778097698 | 27.78° C | 79% | 1015.5 hPa | 0 mm | - | 655 W/m² | - |
| 1778097395 | 28.33° C | 79% | 1015.6 hPa | 0 mm | - | 675 W/m² | - |
| 1778097091 | 28.33° C | 79% | 1015.4 hPa | 0 mm | - | 698 W/m² | - |
| 1778096789 | 28.33° C | 77% | 1015.4 hPa | 0 mm | - | 689 W/m² | - |
| 1778096485 | 28.33° C | 78% | 1015.7 hPa | 0 mm | - | 694 W/m² | - |
| 1778096183 | 28.89° C | 77% | 1015.8 hPa | 0 mm | - | 706 W/m² | - |
| 1778095880 | 28.33° C | 78% | 1015.7 hPa | 0 mm | - | 719 W/m² | - |
| 1778095576 | 27.78° C | 78% | 1015.8 hPa | 0 mm | - | 719 W/m² | - |
| 1778095272 | 28.89° C | 77% | 1015.8 hPa | 0 mm | - | 738 W/m² | - |
| 1778094969 | 27.78° C | 77% | 1015.9 hPa | 0 mm | - | 736 W/m² | - |
| 1778094665 | 28.89° C | 77% | 1015.8 hPa | 0 mm | - | 744 W/m² | - |
| 1778094357 | 28.89° C | 75% | 1015.8 hPa | 0 mm | - | 753 W/m² | - |
| 1778094054 | 28.33° C | 79% | 1015.9 hPa | 0 mm | - | 766 W/m² | - |
| 1778093752 | 28.89° C | 76% | 1016 hPa | 0 mm | - | 179 W/m² | - |
| 1778093447 | 28.33° C | 78% | 1016.2 hPa | 0 mm | - | 841 W/m² | - |
| 1778093145 | 28.33° C | 77% | 1016 hPa | 0 mm | - | 800 W/m² | - |
| 1778092842 | 28.33° C | 77% | 1016.2 hPa | 0 mm | - | 285 W/m² | - |
| 1778092537 | 28.33° C | 77% | 1015.9 hPa | 0 mm | - | 833 W/m² | - |
| 1778092234 | 27.78° C | 80% | 1016 hPa | 0 mm | - | 816 W/m² | - |
| 1778091932 | 28.33° C | 80% | 1016.3 hPa | 0 mm | - | 831 W/m² | - |
| 1778091629 | 28.33° C | 78% | 1016.2 hPa | 0 mm | - | 880 W/m² | - |
| 1778091327 | 28.33° C | 79% | 1016 hPa | 0 mm | - | 817 W/m² | - |
| 1778091023 | 27.78° C | 78% | 1016.4 hPa | 0 mm | - | 801 W/m² | - |
* Rain latest hour (hover to see other rain measurements)
** Current wind speed in m/s (hover to see current wind gust speed)